This is the latest recevied weather packets stored in our database for station/object EA5GTE-12. If no packets are shown the sender has not sent any weather packets the latest 10 day(s).
| Time | Temp. | Humidity | Pressure | Rain* | Wind** | Luminosity | Snow |
|---|---|---|---|---|---|---|---|
| 1787650694 | 26.11° C | 54% | 940.2 hPa | - | - | - | - |
| 1787649794 | 30° C | 42% | 940.1 hPa | - | - | - | - |
| 1787648894 | 31.11° C | 40% | 940.1 hPa | - | - | - | - |
| 1787647993 | 27.78° C | 50% | 940.2 hPa | - | - | - | - |
| 1787647093 | 27.78° C | 52% | 940.2 hPa | - | - | - | - |
| 1787646193 | 27.78° C | 52% | 940.2 hPa | - | - | - | - |
| 1787645293 | 27.78° C | 51% | 940.4 hPa | - | - | - | - |
| 1787644393 | 27.78° C | 53% | 940.2 hPa | - | - | - | - |
| 1787643493 | 25.56° C | 61% | 940.1 hPa | - | - | - | - |
| 1787642642 | 26.11° C | 62% | 940.2 hPa | - | - | - | - |
| 1787642593 | 26.11° C | 62% | 940.2 hPa | - | - | - | - |
| 1787641693 | 23.89° C | 73% | 940.3 hPa | - | - | - | - |
| 1787640793 | 22.78° C | 77% | 940.3 hPa | - | - | - | - |
| 1787639893 | 22.22° C | 83% | 940.2 hPa | - | - | - | - |
| 1787638992 | 21.11° C | 90% | 940.2 hPa | - | - | - | - |
| 1787638092 | 18.89° C | 100% | 940.2 hPa | - | - | - | - |
| 1787637192 | 16.11° C | 100% | 940 hPa | - | - | - | - |
| 1787636292 | 15° C | 100% | 939.8 hPa | - | - | - | - |
| 1787635392 | 14.44° C | 100% | 939.8 hPa | - | - | - | - |
| 1787634492 | 15° C | 100% | 939.8 hPa | - | - | - | - |
| 1787633592 | 15.56° C | 100% | 939.6 hPa | - | - | - | - |
| 1787632692 | 15° C | 100% | 939.6 hPa | - | - | - | - |
| 1787630891 | 16.11° C | 100% | 939.4 hPa | - | - | - | - |
| 1787629991 | 16.11° C | 100% | 939.5 hPa | - | - | - | - |
| 1787629143 | 15.56° C | 100% | 939.4 hPa | - | - | - | - |
* Rain since midnight (hover to see other rain measurements)
** Current wind speed in m/s (hover to see current wind gust speed)